Norse Mersey — IBEN — position and weather

sailwx.info

Track history (hours):
 
Tides and Currents Weather Stations Pressure Air Temp Water Temp Dewpoint Dewpoint Depression Visibility Wind Speed Wind Dir Waves Ship Positions

Norse Mersey

Operator: Norse Merchant Ferries

Last reported at 2015-May-26 04:33 UTC. Time now 2015-May-26 05:48 UTC.
Position N 38°48' E 015°26'.

Length 175 m; draft 5.6 m.

Type: Passenger vessel. MMSI: 247026000.

Date/timePositionNaut miles runAvg speedWind from/ knotsBaromVisibWave heightAir tempDewpointWater temp
2015-May-26 04:33N 38°48' E 015°26'9715.3
2015-May-25 22:12N 40°20' E 014°45'1015.2
2015-May-25 21:33N 40°30' E 014°44'0 0.0
2015-May-25 03:31N 40°30' E 014°44'10314.3
2015-May-24 20:18N 38°54' E 015°34'1215.0
2015-May-24 19:32N 38°43' E 015°41'1514.4
2015-May-24 18:30N 38°31' E 015°51'3 2.7
2015-May-24 17:32N 38°29' E 015°53'2 2.2
2015-May-24 16:33N 38°28' E 015°51'6 2.5
2015-May-24 14:12N 38°33' E 015°46'2 3.0
2015-May-24 13:33N 38°34' E 015°45'4 4.4
2015-May-24 12:33N 38°39' E 015°46'2 1.9
2015-May-24 11:31N 38°41' E 015°46'2 1.3
2015-May-24 10:17N 38°41' E 015°44'1 1.4
2015-May-24 09:33N 38°42' E 015°43'2 1.5
2015-May-24 08:30N 38°42' E 015°41'2 1.7
2015-May-24 07:33N 38°43' E 015°39'2 1.7
2015-May-24 06:33N 38°43' E 015°37'2 1.7
2015-May-24 05:32N 38°43' E 015°35'2 1.7
2015-May-24 04:33N 38°44' E 015°33'2 1.6
2015-May-24 03:28N 38°44' E 015°31'1 1.6
2015-May-24 02:33N 38°43' E 015°31'1515.4
2015-May-24 01:33N 38°28' E 015°38'1313.5
2015-May-24 00:33N 38°15' E 015°40'1413.9
2015-May-23 23:33N 38°02' E 015°35'2115.5
2015-May-23 22:10N 37°43' E 015°21'2 0.1
2015-May-23 09:27N 37°45' E 015°20'1415.1
2015-May-23 08:33N 37°57' E 015°28'1616.1
2015-May-23 07:33N 38°12' E 015°36'1413.5
2015-May-23 06:33N 38°25' E 015°37'1615.6
2015-May-23 05:33N 38°40' E 015°30'1615.6
2015-May-23 04:33N 38°54' E 015°23'9215.3
2015-May-22 22:33N 40°21' E 014°45'4 0.4
2015-May-22 12:33N 40°26' E 014°44'10615.0
2015-May-22 05:29N 38°50' E 015°43'1515.1
2015-May-22 04:30N 38°36' E 015°43'1414.9
2015-May-22 03:33N 38°21' E 015°44'1312.9
2015-May-22 02:34N 38°10' E 015°37'1413.5
2015-May-22 01:33N 37°57' E 015°31'22 1.5
2015-May-21 10:26N 37°38' E 015°16'1415.2
2015-May-21 09:32N 37°50' E 015°24'1515.8
2015-May-21 08:33N 38°04' E 015°32'1414.0
2015-May-21 07:34N 38°17' E 015°41'1615.4
2015-May-21 06:32N 38°32' E 015°34'1615.5
2015-May-21 05:31N 38°46' E 015°27'9115.3
2015-May-20 23:33N 40°12' E 014°46'1714.9
2015-May-20 22:24N 40°29' E 014°44'5 0.4
2015-May-20 11:21N 40°34' E 014°43'1012.8
2015-May-20 10:33N 40°24' E 014°44'15 0.4
2015-May-18 21:23N 40°09' E 014°47'1315.4
2015-May-18 20:32N 40°22' E 014°44'3 0.1
2015-May-17 16:29N 40°25' E 014°44'  
Track history (hours):
 
Tides and Currents Weather Stations Pressure Air Temp Water Temp Dewpoint Dewpoint Depression Visibility Wind Speed Wind Dir Waves Ship Positions

Norse Mersey

Operator: Norse Merchant Ferries

Last reported at 2015-May-26 04:33 UTC. Time now 2015-May-26 05:48 UTC.
Position N 38°48' E 015°26'.

Length 175 m; draft 5.6 m.

Type: Passenger vessel. MMSI: 247026000.

Date/timePositionNaut miles runAvg speedWind from/ knotsBaromVisibWave heightAir tempDewpointWater temp
2015-May-26 04:33N 38°48' E 015°26'9715.3
2015-May-25 22:12N 40°20' E 014°45'1015.2
2015-May-25 21:33N 40°30' E 014°44'0 0.0
2015-May-25 03:31N 40°30' E 014°44'10314.3
2015-May-24 20:18N 38°54' E 015°34'1215.0
2015-May-24 19:32N 38°43' E 015°41'1514.4
2015-May-24 18:30N 38°31' E 015°51'3 2.7
2015-May-24 17:32N 38°29' E 015°53'2 2.2
2015-May-24 16:33N 38°28' E 015°51'6 2.5
2015-May-24 14:12N 38°33' E 015°46'2 3.0
2015-May-24 13:33N 38°34' E 015°45'4 4.4
2015-May-24 12:33N 38°39' E 015°46'2 1.9
2015-May-24 11:31N 38°41' E 015°46'2 1.3
2015-May-24 10:17N 38°41' E 015°44'1 1.4
2015-May-24 09:33N 38°42' E 015°43'2 1.5
2015-May-24 08:30N 38°42' E 015°41'2 1.7
2015-May-24 07:33N 38°43' E 015°39'2 1.7
2015-May-24 06:33N 38°43' E 015°37'2 1.7
2015-May-24 05:32N 38°43' E 015°35'2 1.7
2015-May-24 04:33N 38°44' E 015°33'2 1.6
2015-May-24 03:28N 38°44' E 015°31'1 1.6
2015-May-24 02:33N 38°43' E 015°31'1515.4
2015-May-24 01:33N 38°28' E 015°38'1313.5
2015-May-24 00:33N 38°15' E 015°40'1413.9
2015-May-23 23:33N 38°02' E 015°35'2115.5
2015-May-23 22:10N 37°43' E 015°21'2 0.1
2015-May-23 09:27N 37°45' E 015°20'1415.1
2015-May-23 08:33N 37°57' E 015°28'1616.1
2015-May-23 07:33N 38°12' E 015°36'1413.5
2015-May-23 06:33N 38°25' E 015°37'1615.6
2015-May-23 05:33N 38°40' E 015°30'1615.6
2015-May-23 04:33N 38°54' E 015°23'9215.3
2015-May-22 22:33N 40°21' E 014°45'4 0.4
2015-May-22 12:33N 40°26' E 014°44'10615.0
2015-May-22 05:29N 38°50' E 015°43'1515.1
2015-May-22 04:30N 38°36' E 015°43'1414.9
2015-May-22 03:33N 38°21' E 015°44'1312.9
2015-May-22 02:34N 38°10' E 015°37'1413.5
2015-May-22 01:33N 37°57' E 015°31'22 1.5
2015-May-21 10:26N 37°38' E 015°16'1415.2
2015-May-21 09:32N 37°50' E 015°24'1515.8
2015-May-21 08:33N 38°04' E 015°32'1414.0
2015-May-21 07:34N 38°17' E 015°41'1615.4
2015-May-21 06:32N 38°32' E 015°34'1615.5
2015-May-21 05:31N 38°46' E 015°27'9115.3
2015-May-20 23:33N 40°12' E 014°46'1714.9
2015-May-20 22:24N 40°29' E 014°44'5 0.4
2015-May-20 11:21N 40°34' E 014°43'1012.8
2015-May-20 10:33N 40°24' E 014°44'15 0.4
2015-May-18 21:23N 40°09' E 014°47'1315.4
2015-May-18 20:32N 40°22' E 014°44'3 0.1
2015-May-17 16:29N 40°25' E 014°44'  

Dump ship's entire track history